Zagreb, Croatia
Current Conditions -  °F | °C
As of 10:30 AM on Thursday 18 Dec 2014 (Local Time) from LDZA Reporting Station
Haze Haze  
Wind Chill: 31°   Ceiling: Unl
Heat Index: 36°   Visibility: 1.5mi
Dew Point: 36°   Wind: 6mph
Humidity: 100%   Direction: 240°WSW
Pressure: 30.09"   Gusts: NA
Location:  45.8°N, 15.97°E
Report Text: LDZA 180830Z 24005KT 2500 BR FEW002 02/02 Q1019 BECMG 4000
Loading
Personal Weather Stations






























Interactive Weather Map New forecast layout! Learn more

10-Day Weather Forecast

Advertisements
Track Severe Weather on mobile